Time;durP1;ratioP1;P1;durP2;ratioP2;P2;SDS_P1;SDS_P2;PMS_P1;PMS_P2;Temp;Humidity;BMP_temperature;BMP_pressure;BME280_temperature;BME280_humidity;BME280_pressure;Samples;Min_cycle;Max_cycle;Signal;HPM_P1;HPM_P2
2022/04/18 00:02:23;;;;;;;1.63;0.88;;;12.10;77.40;;;;;;5118901;28;20027;-59
2022/04/18 00:04:49;;;;;;;1.10;0.85;;;12.00;77.80;;;;;;5119057;28;20049;-58
2022/04/18 00:07:15;;;;;;;2.38;1.00;;;11.90;79.10;;;;;;5118742;28;20039;-59
2022/04/18 00:09:41;;;;;;;1.50;1.10;;;11.90;79.10;;;;;;5118589;28;20287;-59
2022/04/18 00:12:07;;;;;;;1.77;1.10;;;11.90;79.90;;;;;;5100839;28;20020;-59
2022/04/18 00:14:33;;;;;;;0.88;0.85;;;11.80;79.60;;;;;;5118628;28;20059;-59
2022/04/18 00:17:00;;;;;;;1.75;0.88;;;11.80;80.70;;;;;;5118494;28;20031;-59
2022/04/18 00:19:26;;;;;;;1.48;1.00;;;11.70;81.60;;;;;;5118579;28;20038;-59
2022/04/18 00:21:51;;;;;;;1.35;1.15;;;11.60;82.90;;;;;;5118402;28;20308;-58
2022/04/18 00:24:19;;;;;;;1.20;1.05;;;11.60;83.60;;;;;;5118354;28;20084;-58
2022/04/18 00:26:46;;;;;;;2.25;1.17;;;11.40;84.20;;;;;;5118333;28;20100;-59
2022/04/18 00:29:12;;;;;;;1.95;1.27;;;11.40;83.60;;;;;;5117602;28;20028;-60
2022/04/18 00:31:38;;;;;;;1.38;1.10;;;11.40;84.50;;;;;;5118126;28;20039;-57
2022/04/18 00:34:04;;;;;;;1.83;1.27;;;11.30;85.40;;;;;;5100361;28;20027;-57
2022/04/18 00:36:31;;;;;;;1.80;1.30;;;11.30;85.90;;;;;;5118151;28;20149;-58
2022/04/18 00:38:57;;;;;;;2.05;1.20;;;11.20;86.30;;;;;;5118537;28;20440;-59
2022/04/18 00:41:23;;;;;;;1.80;1.30;;;11.20;88.30;;;;;;5117667;28;20035;-60
2022/04/18 00:43:50;;;;;;;1.40;1.20;;;11.10;87.90;;;;;;5117646;28;20066;-59
2022/04/18 00:46:19;;;;;;;3.03;1.27;;;11.10;88.30;;;;;;5117966;28;20024;-59
2022/04/18 00:48:46;;;;;;;4.07;1.30;;;11.10;89.30;;;;;;5118519;28;20100;-59
2022/04/18 00:51:15;;;;;;;3.03;1.10;;;11.10;90.00;;;;;;5117844;28;20429;-59
2022/04/18 00:53:42;;;;;;;1.48;1.15;;;10.90;90.10;;;;;;5117940;28;20024;-58
2022/04/18 00:56:12;;;;;;;1.75;1.20;;;10.80;90.80;;;;;;5117174;28;20403;-60
2022/04/18 00:58:39;;;;;;;2.22;1.27;;;10.80;91.20;;;;;;5117740;28;20043;-58
2022/04/18 01:01:05;;;;;;;1.65;1.30;;;10.80;91.40;;;;;;5116863;28;20024;-59
2022/04/18 01:03:31;;;;;;;1.98;1.30;;;10.70;91.90;;;;;;5100126;28;20387;-59
2022/04/18 01:05:59;;;;;;;2.33;1.40;;;10.80;92.10;;;;;;5117620;28;20114;-59
2022/04/18 01:08:26;;;;;;;3.08;1.48;;;10.70;92.30;;;;;;5116862;28;20136;-58
2022/04/18 01:10:53;;;;;;;2.60;1.50;;;10.60;92.70;;;;;;5117649;28;20073;-59
2022/04/18 01:13:21;;;;;;;2.60;1.20;;;10.50;93.70;;;;;;5116994;28;20039;-58
2022/04/18 01:15:52;;;;;;;3.53;1.30;;;10.40;94.00;;;;;;5100391;28;20100;-59
2022/04/18 01:18:55;;;;;;;2.03;1.40;;;10.40;94.90;;;;;;5055553;28;20037;-59
2022/04/18 01:21:44;;;;;;;1.88;1.20;;;10.40;95.00;;;;;;5113653;28;20040;-58
2022/04/18 01:30:10;;;;;;;1.45;1.20;;;10.20;96.10;;;;;;5117439;28;20321;-59
2022/04/18 01:32:37;;;;;;;1.98;1.40;;;10.10;97.20;;;;;;5118587;28;20421;-59
2022/04/18 01:35:04;;;;;;;1.73;1.27;;;10.10;97.20;;;;;;5121923;28;20276;-58
2022/04/18 01:37:31;;;;;;;1.75;1.27;;;10.00;98.20;;;;;;5120816;28;20054;-58
2022/04/18 01:39:59;;;;;;;1.65;1.27;;;10.00;98.80;;;;;;5104279;28;20054;-59
2022/04/18 01:42:25;;;;;;;1.73;1.38;;;10.00;99.10;;;;;;5121577;28;20114;-60
2022/04/18 01:44:51;;;;;;;1.67;1.40;;;9.90;99.60;;;;;;5120449;28;20087;-58
2022/04/18 01:47:18;;;;;;;1.92;1.30;;;9.90;99.70;;;;;;5103767;28;20036;-58
2022/04/18 01:49:44;;;;;;;1.60;1.20;;;9.80;99.90;;;;;;5103603;28;20028;-58
2022/04/18 01:52:10;;;;;;;1.90;1.38;;;9.80;99.90;;;;;;5120569;28;20413;-58
2022/04/18 01:54:37;;;;;;;3.78;1.27;;;9.80;99.90;;;;;;5120498;28;20123;-58
2022/04/18 01:57:04;;;;;;;2.75;1.40;;;9.80;99.90;;;;;;5103405;28;20526;-58
2022/04/18 01:59:30;;;;;;;2.25;1.50;;;9.80;99.90;;;;;;5120377;28;20112;-58
2022/04/18 02:01:57;;;;;;;2.38;1.20;;;9.90;99.90;;;;;;5103525;28;20035;-59
2022/04/18 02:04:23;;;;;;;1.48;1.33;;;9.90;99.90;;;;;;5120584;28;20421;-58
2022/04/18 02:06:49;;;;;;;1.70;1.33;;;9.70;99.90;;;;;;5120241;28;20036;-58
2022/04/18 02:09:15;;;;;;;4.03;1.45;;;9.60;99.90;;;;;;5103318;28;20042;-59
2022/04/18 02:11:41;;;;;;;2.00;1.40;;;9.50;99.90;;;;;;5103118;28;20027;-58
2022/04/18 02:14:07;;;;;;;1.85;1.20;;;9.40;99.90;;;;;;5120173;28;20100;-58
2022/04/18 02:16:33;;;;;;;2.00;1.40;;;9.40;99.90;;;;;;5120041;28;20044;-59
2022/04/18 02:19:01;;;;;;;1.77;1.40;;;9.20;99.90;;;;;;5120109;28;20039;-59
2022/04/18 02:21:27;;;;;;;1.85;1.30;;;9.20;99.90;;;;;;5120809;28;20407;-58
2022/04/18 02:23:53;;;;;;;2.00;1.48;;;9.20;99.90;;;;;;5120017;28;20028;-59
2022/04/18 02:26:19;;;;;;;2.60;1.45;;;9.20;99.90;;;;;;5120812;28;20028;-58
2022/04/18 02:28:50;;;;;;;2.33;1.60;;;9.10;99.90;;;;;;5120305;28;20077;-58
2022/04/18 02:31:17;;;;;;;1.92;1.40;;;9.20;99.90;;;;;;5102834;28;20027;-59
2022/04/18 02:33:42;;;;;;;2.92;1.70;;;9.10;99.90;;;;;;5120577;28;20039;-59
2022/04/18 02:36:08;;;;;;;2.95;1.60;;;9.00;99.90;;;;;;5102662;28;20047;-59
2022/04/18 02:38:34;;;;;;;2.30;1.55;;;9.00;99.90;;;;;;5119720;28;20028;-58
2022/04/18 02:41:00;;;;;;;2.70;1.50;;;9.00;99.90;;;;;;5120454;28;20109;-59
2022/04/18 02:43:27;;;;;;;2.95;1.60;;;9.00;99.90;;;;;;5102289;28;20058;-59
2022/04/18 02:45:58;;;;;;;3.50;1.50;;;9.00;99.90;;;;;;5103384;28;20448;-59
2022/04/18 02:48:31;;;;;;;3.05;1.70;;;8.90;99.90;;;;;;5119683;28;20036;-59
2022/04/18 02:50:59;;;;;;;2.78;1.80;;;8.80;99.90;;;;;;5119273;28;20062;-59
2022/04/18 02:53:27;;;;;;;1.88;1.63;;;8.80;99.90;;;;;;5103005;28;20093;-59
2022/04/18 02:56:00;;;;;;;2.33;1.63;;;8.80;99.90;;;;;;5119409;28;20050;-59
2022/04/18 02:58:26;;;;;;;2.72;1.58;;;8.90;99.90;;;;;;5119313;28;20104;-59
2022/04/18 03:00:53;;;;;;;1.70;1.27;;;8.80;99.90;;;;;;5102455;28;20050;-59
2022/04/18 03:03:19;;;;;;;1.67;1.58;;;8.70;99.90;;;;;;5119913;28;20032;-59
2022/04/18 03:05:45;;;;;;;4.22;1.75;;;8.70;99.90;;;;;;5102297;28;20031;-59
2022/04/18 03:08:11;;;;;;;1.98;1.70;;;8.70;99.90;;;;;;5119081;28;20047;-58
2022/04/18 03:13:27;;;;;;;2.90;1.88;;;8.90;99.90;;;;;;5119408;28;20394;-59
2022/04/18 03:15:54;;;;;;;2.38;1.55;;;8.90;99.90;;;;;;5118907;28;20034;-58
2022/04/18 03:18:20;;;;;;;2.63;1.60;;;8.90;99.90;;;;;;5118869;28;20110;-59
2022/04/18 03:20:46;;;;;;;4.00;1.90;;;8.80;99.90;;;;;;5101834;28;20027;-59
2022/04/18 03:23:13;;;;;;;2.10;1.85;;;8.80;99.90;;;;;;5119080;28;20419;-58
2022/04/18 03:26:08;;;;;;;2.45;1.63;;;8.70;99.90;;;;;;5115255;28;20061;-59
2022/04/18 03:28:56;;;;;;;2.60;1.48;;;8.70;99.90;;;;;;5118773;28;20032;-58
2022/04/18 03:31:22;;;;;;;1.90;1.70;;;8.60;99.90;;;;;;5101668;28;20349;-58
2022/04/18 03:33:48;;;;;;;2.08;1.73;;;8.50;99.90;;;;;;5101687;28;20031;-59
2022/04/18 03:41:45;;;;;;;4.70;2.03;;;8.40;99.90;;;;;;5118376;28;20031;-59
2022/04/18 03:44:11;;;;;;;2.42;1.80;;;8.50;99.90;;;;;;5118333;28;20356;-59
2022/04/18 03:46:37;;;;;;;3.13;1.90;;;8.60;99.90;;;;;;5118331;28;20288;-58
2022/04/18 03:49:03;;;;;;;2.35;1.80;;;8.60;99.90;;;;;;5119500;28;20172;-59
2022/04/18 03:51:30;;;;;;;3.90;1.98;;;8.60;99.90;;;;;;5118435;28;20429;-59
2022/04/18 03:53:56;;;;;;;2.85;1.83;;;8.50;99.90;;;;;;5102129;28;20047;-58
2022/04/18 03:56:26;;;;;;;1.83;1.50;;;8.60;99.90;;;;;;5117602;28;20032;-58
2022/04/18 03:59:07;;;;;;;2.83;1.83;;;8.60;99.90;;;;;;5118932;28;20046;-59
2022/04/18 04:01:40;;;;;;;2.55;2.00;;;8.60;99.90;;;;;;5118039;28;20027;-59
2022/04/18 04:04:06;;;;;;;2.17;1.80;;;8.60;99.90;;;;;;5101830;28;20036;-59
2022/04/18 04:06:32;;;;;;;2.83;1.75;;;8.60;99.90;;;;;;5117942;28;20027;-59
2022/04/18 04:08:58;;;;;;;2.22;2.03;;;8.50;99.90;;;;;;5117979;28;20367;-59
2022/04/18 04:11:31;;;;;;;5.90;2.30;;;8.50;99.90;;;;;;5102018;28;20419;-59
2022/04/18 04:13:57;;;;;;;4.03;1.83;;;8.40;99.90;;;;;;5117839;28;20028;-58
2022/04/18 04:16:24;;;;;;;2.28;2.08;;;8.30;99.90;;;;;;5100846;28;20038;-59
2022/04/18 04:18:53;;;;;;;5.38;2.03;;;8.40;99.90;;;;;;5117990;28;20050;-58
2022/04/18 04:21:19;;;;;;;2.65;2.17;;;8.40;99.90;;;;;;5117642;28;20070;-58
2022/04/18 04:23:45;;;;;;;2.47;1.83;;;8.40;99.90;;;;;;5118338;28;20332;-59
2022/04/18 04:26:29;;;;;;;2.92;1.88;;;8.30;99.90;;;;;;5118487;28;20069;-59
2022/04/18 04:28:56;;;;;;;2.85;2.00;;;8.20;99.90;;;;;;5117525;28;20032;-59
2022/04/18 04:31:30;;;;;;;3.35;2.00;;;8.20;99.90;;;;;;5117351;28;20066;-58
2022/04/18 04:33:58;;;;;;;2.53;1.83;;;8.30;99.90;;;;;;5117458;28;20081;-58
2022/04/18 04:36:25;;;;;;;2.42;2.00;;;8.30;99.90;;;;;;5117346;28;20020;-58
2022/04/18 04:38:53;;;;;;;2.25;1.88;;;8.30;99.90;;;;;;5100754;28;20031;-59
2022/04/18 04:41:24;;;;;;;2.42;2.05;;;8.20;99.90;;;;;;5117361;28;20069;-59
2022/04/18 04:43:55;;;;;;;2.75;1.92;;;8.20;99.90;;;;;;5117277;28;20108;-60
2022/04/18 04:46:30;;;;;;;3.20;2.10;;;8.20;99.90;;;;;;5117195;28;20055;-59
2022/04/18 04:49:05;;;;;;;4.28;2.40;;;8.20;99.90;;;;;;5101550;28;20051;-59
2022/04/18 04:51:31;;;;;;;5.25;2.53;;;8.20;99.90;;;;;;5117263;28;20024;-59
2022/04/18 04:53:57;;;;;;;3.22;2.40;;;8.20;99.90;;;;;;5117033;28;20023;-60
2022/04/18 04:56:33;;;;;;;3.03;2.17;;;8.10;99.90;;;;;;5101572;28;20027;-60
2022/04/18 04:59:00;;;;;;;3.20;2.30;;;8.10;99.90;;;;;;5118411;28;20065;-59
2022/04/18 05:01:29;;;;;;;3.55;2.13;;;8.10;99.90;;;;;;5100195;28;20023;-59
2022/04/18 05:04:01;;;;;;;2.90;2.00;;;8.10;99.90;;;;;;5116761;28;20031;-59
2022/04/18 05:06:28;;;;;;;3.45;2.08;;;8.10;99.90;;;;;;5116809;28;20031;-60
2022/04/18 05:08:55;;;;;;;3.67;2.10;;;8.10;99.90;;;;;;5116777;28;20403;-60
2022/04/18 05:11:23;;;;;;;4.07;2.00;;;8.20;99.90;;;;;;5099884;28;20039;-60
2022/04/18 05:13:53;;;;;;;3.00;2.38;;;8.10;99.90;;;;;;5117114;28;20042;-60
2022/04/18 05:16:32;;;;;;;5.68;2.65;;;8.30;99.90;;;;;;5116660;28;20447;-60
2022/04/18 05:19:11;;;;;;;5.72;2.35;;;8.40;99.90;;;;;;5101716;28;20065;-60
2022/04/18 05:21:38;;;;;;;2.72;2.00;;;8.50;99.90;;;;;;5116729;28;20087;-60
2022/04/18 05:24:12;;;;;;;3.90;2.30;;;8.50;99.90;;;;;;5116642;28;20043;-60
2022/04/18 05:26:39;;;;;;;2.28;1.92;;;8.50;99.90;;;;;;5116548;28;20070;-60
2022/04/18 05:29:05;;;;;;;2.47;2.13;;;8.60;99.90;;;;;;5116557;28;20038;-60
2022/04/18 05:31:32;;;;;;;3.08;2.30;;;8.70;99.90;;;;;;5116489;28;20046;-60
2022/04/18 05:33:59;;;;;;;4.07;2.60;;;8.70;99.90;;;;;;5116553;28;20028;-59
2022/04/18 05:36:34;;;;;;;3.05;2.25;;;8.80;99.90;;;;;;5101038;28;20034;-60
2022/04/18 05:39:03;;;;;;;2.88;2.30;;;9.00;99.90;;;;;;5100068;28;20321;-60
2022/04/18 05:41:34;;;;;;;5.50;2.75;;;9.10;99.90;;;;;;5100497;28;20039;-60
2022/04/18 05:44:00;;;;;;;3.88;2.58;;;9.30;99.90;;;;;;5116320;28;20058;-60
2022/04/18 05:46:32;;;;;;;3.85;2.78;;;9.40;99.90;;;;;;5117265;28;20032;-60
2022/04/18 05:48:58;;;;;;;5.18;2.47;;;9.50;99.90;;;;;;5116906;28;20036;-60
2022/04/18 05:51:24;;;;;;;4.00;2.40;;;9.70;99.90;;;;;;5116348;28;20036;-59
2022/04/18 05:53:50;;;;;;;2.28;1.77;;;9.90;99.90;;;;;;5099402;28;20123;-60
2022/04/18 05:56:36;;;;;;;2.03;1.80;;;10.00;99.90;;;;;;5115889;28;20064;-59
2022/04/18 05:59:21;;;;;;;1.80;1.60;;;10.10;99.90;;;;;;5117604;28;20092;-60
2022/04/18 06:02:06;;;;;;;4.18;1.80;;;10.40;99.90;;;;;;5116426;28;20351;-59
2022/04/18 06:04:34;;;;;;;3.85;2.03;;;10.70;99.90;;;;;;5117057;28;20093;-59
2022/04/18 06:07:20;;;;;;;2.95;1.60;;;10.80;99.90;;;;;;5095740;28;20114;-60
2022/04/18 06:10:06;;;;;;;3.38;1.65;;;11.00;99.90;;;;;;5116327;28;20031;-60
2022/04/18 06:12:32;;;;;;;3.35;1.70;;;11.00;99.90;;;;;;5117033;28;20059;-60
2022/04/18 06:14:58;;;;;;;2.97;1.80;;;11.30;99.90;;;;;;5099519;28;20028;-60
2022/04/18 06:17:24;;;;;;;2.33;1.80;;;11.30;99.90;;;;;;5116967;28;20089;-59
2022/04/18 06:19:54;;;;;;;2.95;1.60;;;11.50;99.90;;;;;;5103566;28;20058;-60
2022/04/18 06:22:20;;;;;;;1.73;1.58;;;11.70;99.90;;;;;;5121045;28;20059;-60
2022/04/18 06:24:46;;;;;;;2.53;1.73;;;11.80;99.90;;;;;;5119886;28;20303;-60
2022/04/18 06:27:30;;;;;;;3.17;1.40;;;11.80;99.90;;;;;;5105381;28;20028;-60
2022/04/18 06:29:56;;;;;;;3.75;1.63;;;12.00;99.90;;;;;;5102808;28;20055;-60
2022/04/18 06:32:24;;;;;;;3.22;1.80;;;12.20;99.90;;;;;;5102855;28;20387;-60
2022/04/18 06:34:52;;;;;;;1.85;1.67;;;12.30;99.90;;;;;;5103319;28;20130;-60
2022/04/18 06:37:23;;;;;;;3.35;2.10;;;12.30;99.90;;;;;;5103410;28;20046;-59
2022/04/18 06:40:05;;;;;;;4.07;1.90;;;12.20;99.90;;;;;;5119650;28;20130;-60
2022/04/18 06:42:43;;;;;;;3.97;1.70;;;12.30;99.90;;;;;;5104350;28;20027;-60
2022/04/18 06:45:14;;;;;;;2.80;1.80;;;12.50;99.90;;;;;;5119518;28;20331;-61
2022/04/18 06:47:40;;;;;;;1.80;1.70;;;12.50;99.90;;;;;;5102736;28;20050;-60
2022/04/18 06:50:14;;;;;;;2.10;1.85;;;12.60;99.90;;;;;;5119316;28;20050;-58
2022/04/18 06:53:01;;;;;;;2.53;1.90;;;12.50;99.90;;;;;;5120167;28;20041;-62
2022/04/18 06:59:09;;;;;;;2.40;1.70;;;12.60;99.90;;;;;;5077597;28;20191;-60
2022/04/18 07:01:35;;;;;;;4.38;2.40;;;13.00;99.90;;;;;;5077847;28;20132;-61
2022/04/18 07:04:01;;;;;;;3.88;1.80;;;13.00;99.60;;;;;;5095027;28;20044;-59
2022/04/18 07:06:27;;;;;;;2.75;1.70;;;13.10;99.30;;;;;;5119018;28;20350;-60
2022/04/18 07:08:53;;;;;;;1.83;1.55;;;13.20;98.50;;;;;;5101872;28;20031;-59
2022/04/18 07:11:44;;;;;;;3.30;1.70;;;13.10;98.60;;;;;;5115723;28;20058;-59
2022/04/18 07:14:15;;;;;;;2.45;1.80;;;13.30;99.20;;;;;;5119059;28;20114;-59
2022/04/18 07:16:45;;;;;;;2.65;1.75;;;13.40;98.40;;;;;;5118953;28;20038;-59
2022/04/18 07:19:15;;;;;;;2.92;1.60;;;13.30;98.00;;;;;;5118896;28;20034;-59
2022/04/18 07:21:41;;;;;;;2.10;1.70;;;13.50;97.60;;;;;;5119555;28;20325;-59
2022/04/18 07:24:07;;;;;;;2.45;1.40;;;13.70;97.30;;;;;;5101668;28;20062;-59
2022/04/18 07:26:34;;;;;;;1.88;1.77;;;13.90;97.00;;;;;;5101645;28;20314;-59
2022/04/18 07:29:00;;;;;;;2.63;1.80;;;14.10;96.40;;;;;;5101698;28;20315;-59
2022/04/18 07:31:26;;;;;;;2.25;1.58;;;13.90;95.90;;;;;;5117919;28;20035;-60
2022/04/18 07:33:52;;;;;;;1.60;1.42;;;13.90;94.70;;;;;;5101733;28;20511;-59
2022/04/18 07:36:20;;;;;;;2.30;1.60;;;13.60;95.40;;;;;;5118523;28;20031;-60
2022/04/18 07:38:49;;;;;;;2.13;1.35;;;13.50;95.20;;;;;;5101543;28;20031;-59
2022/04/18 07:41:20;;;;;;;1.90;1.50;;;13.60;95.70;;;;;;5101806;28;20041;-59
2022/04/18 07:43:46;;;;;;;3.20;1.42;;;13.70;95.70;;;;;;5118136;28;20056;-59
2022/04/18 07:46:15;;;;;;;2.05;1.50;;;13.80;96.10;;;;;;5118313;28;20314;-59
2022/04/18 07:48:43;;;;;;;2.58;1.50;;;14.10;95.60;;;;;;5118226;28;20028;-59
2022/04/18 07:53:54;;;;;;;3.10;1.70;;;14.50;93.60;;;;;;5118948;28;20031;-62
2022/04/18 07:56:21;;;;;;;5.85;1.73;;;14.40;93.50;;;;;;5118080;28;20051;-59
2022/04/18 07:58:47;;;;;;;2.85;1.65;;;14.20;94.40;;;;;;5118019;28;20284;-60
2022/04/18 08:01:20;;;;;;;2.33;1.50;;;14.20;94.70;;;;;;5118074;28;20036;-59
2022/04/18 08:03:48;;;;;;;1.70;1.50;;;14.30;94.00;;;;;;5119093;28;20127;-58
2022/04/18 08:06:14;;;;;;;3.15;1.45;;;14.10;94.60;;;;;;5117840;28;20345;-59
2022/04/18 08:08:48;;;;;;;1.60;1.50;;;14.10;94.40;;;;;;5102481;28;20118;-59
2022/04/18 08:11:15;;;;;;;3.53;1.48;;;14.20;93.70;;;;;;5118536;28;20062;-59
2022/04/18 08:13:45;;;;;;;2.25;1.63;;;14.50;94.20;;;;;;5101525;28;20031;-58
2022/04/18 08:16:30;;;;;;;1.75;1.30;;;14.90;93.80;;;;;;5119062;28;20093;-59
2022/04/18 08:19:02;;;;;;;2.25;1.80;;;15.00;93.80;;;;;;5117613;28;20042;-59
2022/04/18 08:21:28;;;;;;;2.80;1.60;;;15.10;93.90;;;;;;5117754;28;20299;-59
2022/04/18 08:23:54;;;;;;;2.80;1.70;;;15.10;92.30;;;;;;5100534;28;20444;-59
2022/04/18 08:26:40;;;;;;;1.70;1.30;;;15.00;92.60;;;;;;5097465;28;20104;-58
2022/04/18 08:29:18;;;;;;;2.03;1.60;;;14.80;92.30;;;;;;5117402;28;20415;-58
2022/04/18 08:32:13;;;;;;;1.88;1.30;;;14.80;92.70;;;;;;5104344;28;20051;-58
2022/04/18 08:34:40;;;;;;;7.85;1.70;;;14.80;94.10;;;;;;5117212;28;20352;-56
2022/04/18 08:37:09;;;;;;;3.15;1.75;;;15.20;94.40;;;;;;5117099;28;20042;-60
2022/04/18 08:39:54;;;;;;;2.38;1.70;;;15.30;92.50;;;;;;5117567;28;20409;-59
2022/04/18 08:42:23;;;;;;;2.60;1.60;;;15.30;92.10;;;;;;5116899;28;20352;-60
2022/04/18 08:44:54;;;;;;;1.92;1.33;;;15.30;91.70;;;;;;5099984;28;20112;-60
2022/04/18 08:52:50;;;;;;;3.90;1.80;;;15.00;92.40;;;;;;5117007;28;20035;-59
2022/04/18 08:55:32;;;;;;;2.70;1.77;;;15.10;92.40;;;;;;5102355;28;20299;-60
2022/04/18 08:58:00;;;;;;;2.17;1.52;;;15.10;92.20;;;;;;5116897;28;20080;-59
2022/04/18 09:00:31;;;;;;;2.75;1.50;;;15.00;90.60;;;;;;5101106;28;20399;-59
2022/04/18 09:03:13;;;;;;;2.40;1.50;;;15.10;91.50;;;;;;5117126;28;20376;-59
2022/04/18 09:06:03;;;;;;;3.15;1.70;;;15.30;92.00;;;;;;5116822;28;20053;-59
2022/04/18 09:08:32;;;;;;;1.80;1.60;;;15.40;91.70;;;;;;5116735;28;20039;-59
2022/04/18 09:10:58;;;;;;;2.35;1.45;;;15.60;91.20;;;;;;5116668;28;20027;-59
2022/04/18 09:13:25;;;;;;;1.88;1.70;;;15.70;91.00;;;;;;5116667;28;20028;-59
2022/04/18 09:15:57;;;;;;;;;;;15.80;90.60;;;;;;5117173;28;20307;-61
2022/04/18 09:18:24;;;;;;;2.53;1.60;;;15.60;89.70;;;;;;5099769;28;19925;-60
2022/04/18 09:21:17;;;;;;;2.28;1.63;;;15.30;90.40;;;;;;5115462;28;20048;-59
2022/04/18 09:23:45;;;;;;;2.70;1.48;;;15.40;90.40;;;;;;5116536;28;20185;-59
2022/04/18 09:26:26;;;;;;;2.33;1.67;;;15.40;90.50;;;;;;5116727;28;20031;-60
2022/04/18 09:29:05;;;;;;;2.50;1.35;;;15.40;90.10;;;;;;5116516;28;20481;-60
2022/04/18 09:31:41;;;;;;;2.08;1.67;;;15.40;90.00;;;;;;5117410;28;20059;-59
2022/04/18 09:34:20;;;;;;;1.98;1.58;;;15.60;90.00;;;;;;5116485;28;20028;-58
2022/04/18 09:36:46;;;;;;;1.40;1.30;;;15.60;90.50;;;;;;5116380;28;20298;-60
2022/04/18 09:39:23;;;;;;;3.00;1.50;;;15.70;89.20;;;;;;5116266;28;20399;-59
2022/04/18 09:42:11;;;;;;;4.15;1.52;;;15.90;87.70;;;;;;5101586;28;20024;-58
2022/04/18 09:44:56;;;;;;;4.13;1.73;;;15.90;85.50;;;;;;5117138;28;20139;-60
2022/04/18 09:47:25;;;;;;;1.83;1.58;;;15.80;85.40;;;;;;5099484;28;20478;-58
2022/04/18 09:49:51;;;;;;;2.28;1.80;;;15.90;87.00;;;;;;5099334;28;20035;-59
2022/04/18 09:52:26;;;;;;;2.50;1.73;;;16.10;84.80;;;;;;5116410;28;20047;-59
2022/04/18 09:54:57;;;;;;;3.65;1.73;;;16.20;84.50;;;;;;5121268;28;20413;-62
2022/04/18 09:57:24;;;;;;;2.83;1.40;;;16.40;83.50;;;;;;5121172;28;20019;-60
2022/04/18 09:59:52;;;;;;;2.60;1.48;;;16.10;83.70;;;;;;5121094;28;20027;-59
2022/04/18 10:02:19;;;;;;;2.47;1.80;;;16.20;84.90;;;;;;5120500;28;20100;-59
2022/04/18 10:04:46;;;;;;;2.25;1.67;;;16.40;84.40;;;;;;5120252;28;20024;-60
2022/04/18 10:07:13;;;;;;;1.52;1.20;;;16.30;81.40;;;;;;5121024;28;20097;-59
2022/04/18 10:09:41;;;;;;;1.60;1.40;;;16.30;81.40;;;;;;5120942;28;20073;-60
2022/04/18 10:12:08;;;;;;;1.73;1.38;;;16.60;81.30;;;;;;5120835;28;20036;-59
2022/04/18 10:14:34;;;;;;;1.30;1.08;;;16.80;82.40;;;;;;5103149;28;20034;-59
2022/04/18 10:17:02;;;;;;;2.58;1.60;;;17.00;81.20;;;;;;5120159;28;20349;-59
2022/04/18 10:19:42;;;;;;;1.50;1.40;;;17.10;81.00;;;;;;5120782;28;20027;-60
2022/04/18 10:22:41;;;;;;;1.40;1.05;;;17.30;79.40;;;;;;5119792;28;20027;-58
2022/04/18 10:25:34;;;;;;;2.63;1.55;;;17.60;86.80;;;;;;5088167;28;20047;-59
2022/04/18 10:28:08;;;;;;;2.05;1.45;;;18.00;81.80;;;;;;5120527;28;20039;-60
2022/04/18 10:30:40;;;;;;;3.90;1.70;;;18.30;78.10;;;;;;5120602;28;20130;-60
2022/04/18 10:33:07;;;;;;;2.17;1.20;;;18.60;77.90;;;;;;5120642;28;20028;-60
2022/04/18 10:35:34;;;;;;;1.35;1.20;;;18.80;78.30;;;;;;5120425;28;20031;-60
2022/04/18 10:38:03;;;;;;;2.38;1.50;;;18.40;69.80;;;;;;5102778;28;20028;-61
2022/04/18 10:40:39;;;;;;;1.70;1.10;;;18.20;72.20;;;;;;5119726;28;20102;-59
2022/04/18 10:43:08;;;;;;;1.48;1.00;;;18.20;66.70;;;;;;5119570;28;20047;-60
2022/04/18 10:45:34;;;;;;;2.35;1.10;;;18.40;66.20;;;;;;5120340;28;20034;-59
2022/04/18 10:48:08;;;;;;;1.92;1.45;;;19.50;67.40;;;;;;5102523;28;20039;-59
2022/04/18 10:50:47;;;;;;;1.52;1.20;;;20.80;63.70;;;;;;5120184;28;20027;-60
2022/04/18 10:53:21;;;;;;;1.10;1.00;;;21.30;62.10;;;;;;5119501;28;20031;-60
2022/04/18 10:55:53;;;;;;;0.88;0.60;;;21.40;60.80;;;;;;5119438;28;20031;-59
2022/04/18 10:58:31;;;;;;;1.38;1.00;;;22.00;53.30;;;;;;5120218;28;20027;-60
2022/04/18 11:00:59;;;;;;;1.33;1.10;;;22.50;54.60;;;;;;5119910;28;20023;-59
2022/04/18 11:03:46;;;;;;;2.30;1.30;;;22.20;55.70;;;;;;5119851;28;20031;-60
2022/04/18 11:06:18;;;;;;;1.50;1.40;;;22.80;54.50;;;;;;5119091;28;20032;-61
2022/04/18 11:09:07;;;;;;;1.60;1.27;;;23.40;55.40;;;;;;5119090;28;20409;-61
2022/04/18 11:11:52;;;;;;;1.40;1.00;;;24.10;55.40;;;;;;5118965;28;20028;-62
2022/04/18 11:14:24;;;;;;;1.27;1.17;;;24.20;51.80;;;;;;5119800;28;20027;-60
2022/04/18 11:16:56;;;;;;;2.25;1.27;;;24.60;49.60;;;;;;5119876;28;20032;-60
2022/04/18 11:19:28;;;;;;;2.38;1.15;;;23.30;51.00;;;;;;5119751;28;20294;-60
2022/04/18 11:21:58;;;;;;;1.73;1.08;;;23.30;52.10;;;;;;5119517;28;20043;-61
2022/04/18 11:24:51;;;;;;;2.50;1.10;;;24.80;49.50;;;;;;5119617;28;20046;-62
2022/04/18 11:27:26;;;;;;;;;;;26.50;47.90;;;;;;5108775;28;20039;-61
2022/04/18 11:30:10;;;;;;;1.65;1.17;;;26.90;47.10;;;;;;5101626;28;19907;-61
2022/04/18 11:32:39;;;;;;;1.40;1.20;;;27.10;46.10;;;;;;5119400;28;20107;-61
2022/04/18 11:35:07;;;;;;;2.70;1.02;;;28.30;45.70;;;;;;5119383;28;20027;-60
2022/04/18 11:37:43;;;;;;;1.80;1.45;;;28.10;45.00;;;;;;5118624;28;20028;-61
2022/04/18 11:40:11;;;;;;;1.20;1.10;;;28.00;42.70;;;;;;5119238;28;20190;-61
2022/04/18 11:42:38;;;;;;;1.33;1.20;;;26.50;43.70;;;;;;5119186;28;20307;-60
2022/04/18 11:45:24;;;;;;;3.35;1.10;;;26.40;43.80;;;;;;5118891;28;20060;-62
2022/04/18 11:47:50;;;;;;;1.38;1.10;;;26.70;43.60;;;;;;5118806;28;20031;-61
2022/04/18 11:50:23;;;;;;;1.60;1.25;;;26.90;43.50;;;;;;5118937;28;20049;-61
2022/04/18 11:52:59;;;;;;;1.52;1.42;;;27.90;42.90;;;;;;5119096;28;20066;-62
2022/04/18 11:55:25;;;;;;;1.65;1.35;;;27.70;42.60;;;;;;5118971;28;20039;-61
2022/04/18 11:57:51;;;;;;;1.40;1.30;;;28.30;40.70;;;;;;5118959;28;20403;-60
2022/04/18 12:08:39;;;;;;;1.83;1.33;;;30.20;38.20;;;;;;5118738;28;20046;-60
2022/04/18 12:11:04;;;;;;;1.50;1.40;;;31.20;37.70;;;;;;5117774;28;20127;-61
2022/04/18 12:13:31;;;;;;;2.15;1.40;;;32.10;36.20;;;;;;5118582;28;20111;-61
2022/04/18 12:16:00;;;;;;;6.20;1.80;;;32.40;35.50;;;;;;5117978;28;20089;-61
2022/04/18 12:18:26;;;;;;;1.67;1.10;;;31.50;35.40;;;;;;5117773;28;20419;-61
2022/04/18 12:20:52;;;;;;;1.65;1.15;;;32.10;35.60;;;;;;5118375;28;20023;-61
2022/04/18 12:23:26;;;;;;;1.98;1.40;;;33.00;34.50;;;;;;5118359;28;20027;-60
2022/04/18 12:25:54;;;;;;;1.23;1.13;;;32.50;32.20;;;;;;5118119;28;20031;-61
2022/04/18 12:28:23;;;;;;;1.63;1.20;;;31.30;33.30;;;;;;5118905;28;20435;-62
2022/04/18 12:30:50;;;;;;;1.58;1.17;;;31.40;33.40;;;;;;5118066;28;20379;-61
2022/04/18 12:33:23;;;;;;;2.20;1.20;;;31.10;33.40;;;;;;5118102;28;20049;-62
2022/04/18 12:35:56;;;;;;;1.35;1.10;;;28.70;34.50;;;;;;5117386;28;20024;-61
2022/04/18 12:38:39;;;;;;;1.48;1.10;;;26.90;36.30;;;;;;5118196;28;20123;-62
2022/04/18 12:41:05;;;;;;;1.55;1.45;;;26.80;38.20;;;;;;5118132;28;20084;-61
2022/04/18 12:43:35;;;;;;;2.42;1.50;;;27.50;37.60;;;;;;5117958;28;20074;-62
2022/04/18 12:46:10;;;;;;;1.90;1.27;;;26.70;38.20;;;;;;5118034;28;20489;-62
2022/04/18 12:48:37;;;;;;;1.50;1.40;;;26.10;38.60;;;;;;5118341;28;20030;-61
2022/04/18 12:51:06;;;;;;;1.60;1.15;;;27.20;38.00;;;;;;5117810;28;20039;-62
2022/04/18 12:53:48;;;;;;;1.23;1.13;;;29.00;37.10;;;;;;5117839;28;20030;-62
2022/04/18 12:56:22;;;;;;;1.65;1.27;;;31.00;35.20;;;;;;5117128;28;20461;-61
2022/04/18 12:58:49;;;;;;;1.75;1.48;;;31.50;35.50;;;;;;5118343;28;20057;-61
2022/04/18 13:01:22;;;;;;;1.38;1.20;;;30.00;35.70;;;;;;5117707;28;20016;-61
2022/04/18 13:03:48;;;;;;;1.42;1.33;;;30.30;36.60;;;;;;5117617;28;20032;-61
2022/04/18 13:06:22;;;;;;;2.08;1.33;;;31.40;34.10;;;;;;5117652;28;20043;-61
2022/04/18 13:08:48;;;;;;;1.75;1.45;;;32.00;34.90;;;;;;5117978;28;20032;-61
2022/04/18 13:11:14;;;;;;;1.92;1.40;;;33.10;33.10;;;;;;5117509;28;20039;-61
2022/04/18 13:13:42;;;;;;;1.88;1.30;;;33.00;33.70;;;;;;5116918;28;20027;-61
2022/04/18 13:16:24;;;;;;;1.98;1.35;;;34.10;33.50;;;;;;5099772;28;20032;-62
2022/04/18 13:19:06;;;;;;;1.58;1.40;;;34.80;31.80;;;;;;5117510;28;20031;-62
2022/04/18 13:21:33;;;;;;;1.45;1.20;;;33.60;31.30;;;;;;5117836;28;20028;-61
2022/04/18 13:24:00;;;;;;;1.45;1.15;;;33.40;32.30;;;;;;5116675;28;20106;-62
2022/04/18 13:26:27;;;;;;;2.40;1.05;;;32.40;32.80;;;;;;5117409;28;20039;-62
2022/04/18 13:28:53;;;;;;;1.67;1.58;;;33.30;33.30;;;;;;5116424;28;20118;-62
2022/04/18 13:31:20;;;;;;;2.63;1.50;;;31.90;33.10;;;;;;5116664;28;20337;-63
2022/04/18 13:33:46;;;;;;;1.33;1.23;;;30.70;33.60;;;;;;5117948;28;20024;-63
2022/04/18 13:36:30;;;;;;;1.58;1.48;;;30.40;35.00;;;;;;5116636;28;20111;-62
2022/04/18 13:38:56;;;;;;;2.03;1.50;;;31.30;33.80;;;;;;5117498;28;20024;-62
2022/04/18 13:41:23;;;;;;;1.90;1.58;;;32.10;33.40;;;;;;5117245;28;20173;-60
2022/04/18 13:43:50;;;;;;;1.55;1.17;;;33.50;33.00;;;;;;5116437;28;20044;-62